Time;durP1;ratioP1;P1;durP2;ratioP2;P2;SDS_P1;SDS_P2;PMS_P1;PMS_P2;Temp;Humidity;BMP_temperature;BMP_pressure;BME280_temperature;BME280_humidity;BME280_pressure;Samples;Min_cycle;Max_cycle;Signal;HPM_P1;HPM_P2
2022/11/25 00:01:12;;;;;;;1999.90;999.90;;;7.60;99.90;;;;;;5029001;28;20053;-67
2022/11/25 00:03:38;;;;;;;1999.90;999.90;;;7.60;99.90;;;;;;5048441;28;20452;-67
2022/11/25 00:06:19;;;;;;;1999.90;999.90;;;7.60;99.90;;;;;;5046175;28;20045;-67
2022/11/25 00:08:46;;;;;;;1999.90;999.90;;;7.60;99.90;;;;;;5047842;28;20045;-67
2022/11/25 00:11:13;;;;;;;1999.90;999.90;;;7.60;99.90;;;;;;5027067;28;20048;-67
2022/11/25 00:13:40;;;;;;;1999.90;999.90;;;7.60;99.90;;;;;;5045740;28;20151;-67
2022/11/25 00:16:08;;;;;;;1999.90;999.90;;;7.50;99.90;;;;;;5029944;28;20452;-67
2022/11/25 00:18:34;;;;;;;1999.90;999.90;;;7.50;99.90;;;;;;5045958;28;20048;-67
2022/11/25 00:21:08;;;;;;;1999.90;999.90;;;7.50;99.90;;;;;;5044863;28;20103;-67
2022/11/25 00:23:35;;;;;;;1999.90;999.90;;;7.50;99.90;;;;;;5044342;28;20037;-67
2022/11/25 00:26:12;;;;;;;1999.90;999.90;;;7.60;99.90;;;;;;5029628;28;20416;-67
2022/11/25 00:28:38;;;;;;;1999.90;999.90;;;7.60;99.90;;;;;;5044250;28;20452;-67
2022/11/25 00:31:06;;;;;;;1999.90;999.90;;;7.60;99.90;;;;;;5044502;28;20041;-67
2022/11/25 00:33:31;;;;;;;1999.90;999.90;;;7.60;99.90;;;;;;5046498;28;20071;-67
2022/11/25 00:36:01;;;;;;;1999.90;999.90;;;7.60;99.90;;;;;;5046837;28;20507;-67
2022/11/25 00:38:26;;;;;;;1999.90;999.90;;;7.60;99.90;;;;;;5046572;28;20131;-67
2022/11/25 00:44:34;;;;;;;1999.90;999.90;;;7.60;99.90;;;;;;5047097;28;20239;-67
2022/11/25 00:46:22;;;;;;;1999.90;999.90;;;7.60;99.90;;;;;;5039702;28;20049;-67
2022/11/25 00:48:47;;;;;;;1999.90;999.90;;;7.60;99.90;;;;;;5045499;28;20040;-67
2022/11/25 00:51:13;;;;;;;1999.90;999.90;;;7.60;99.90;;;;;;5046114;28;20125;-67
2022/11/25 00:53:38;;;;;;;1999.90;999.90;;;7.60;99.90;;;;;;5027753;28;20584;-67
2022/11/25 00:56:14;;;;;;;1999.90;999.90;;;7.60;99.90;;;;;;5028893;28;20135;-67
2022/11/25 00:58:40;;;;;;;1999.90;999.90;;;7.70;99.90;;;;;;5046968;28;20156;-67
2022/11/25 01:01:06;;;;;;;1999.90;999.90;;;7.70;99.90;;;;;;5046384;28;20122;-67
2022/11/25 01:03:33;;;;;;;1999.90;999.90;;;7.70;99.90;;;;;;5045671;28;20396;-67
2022/11/25 01:06:08;;;;;;;1999.90;999.90;;;7.70;99.90;;;;;;5045821;28;20143;-67
2022/11/25 01:08:35;;;;;;;1999.90;999.90;;;7.70;99.90;;;;;;5046628;28;20140;-67
2022/11/25 01:11:04;;;;;;;1999.90;999.90;;;7.70;99.90;;;;;;5046658;28;20076;-67
2022/11/25 01:13:31;;;;;;;1999.90;999.90;;;7.70;99.90;;;;;;5045663;28;20041;-67
2022/11/25 01:15:56;;;;;;;1999.90;999.90;;;7.60;99.90;;;;;;5045933;28;20514;-67
2022/11/25 01:18:22;;;;;;;1999.90;999.90;;;7.60;99.90;;;;;;5044023;28;20052;-67
2022/11/25 01:20:48;;;;;;;1999.90;999.90;;;7.50;99.90;;;;;;5046576;28;20381;-67
2022/11/25 01:23:13;;;;;;;1999.90;999.90;;;7.50;99.90;;;;;;5044084;28;20041;-67
2022/11/25 01:25:39;;;;;;;1999.90;999.90;;;7.50;99.90;;;;;;5045297;28;20476;-67
2022/11/25 01:28:05;;;;;;;1999.90;999.90;;;7.40;99.90;;;;;;5045146;28;20048;-67
2022/11/25 01:30:31;;;;;;;1999.90;999.90;;;7.40;99.90;;;;;;5044464;28;20086;-67
2022/11/25 01:32:57;;;;;;;1999.90;999.90;;;7.40;99.90;;;;;;5044909;28;20037;-67
2022/11/25 01:35:22;;;;;;;1999.90;999.90;;;7.40;99.90;;;;;;5043532;28;20068;-67
2022/11/25 01:37:48;;;;;;;1999.90;999.90;;;7.40;99.90;;;;;;5045214;28;20061;-67
2022/11/25 01:40:14;;;;;;;1999.90;999.90;;;7.40;99.90;;;;;;5042120;28;20721;-67
2022/11/25 01:42:47;;;;;;;1999.90;999.90;;;7.40;99.90;;;;;;5028129;28;20037;-67
2022/11/25 01:45:21;;;;;;;;;;;7.40;99.90;;;;;;5044669;28;20064;-67
2022/11/25 01:47:52;;;;;;;1999.90;999.90;;;7.40;99.90;;;;;;5046524;28;20403;-67
2022/11/25 01:50:21;;;;;;;1999.90;999.90;;;7.40;99.90;;;;;;5023098;28;20037;-67
2022/11/25 01:52:50;;;;;;;1999.90;999.90;;;7.40;99.90;;;;;;5025644;28;20044;-67
2022/11/25 01:55:23;;;;;;;1999.90;999.90;;;7.40;99.90;;;;;;5027538;28;20392;-67
2022/11/25 01:58:01;;;;;;;1999.90;999.90;;;7.40;99.90;;;;;;5042654;28;20452;-67
2022/11/25 02:00:27;;;;;;;1999.90;999.90;;;7.50;99.90;;;;;;5044033;28;20091;-67
2022/11/25 02:02:54;;;;;;;1999.90;999.90;;;7.50;99.90;;;;;;5045103;28;20036;-67
2022/11/25 02:05:25;;;;;;;1999.90;999.90;;;7.50;99.90;;;;;;5043777;28;20059;-67
2022/11/25 02:07:52;;;;;;;1999.90;999.90;;;7.50;99.90;;;;;;5059960;28;20049;-67
2022/11/25 02:10:25;;;;;;;1999.90;999.90;;;7.50;99.90;;;;;;5059484;28;20381;-67
2022/11/25 02:12:52;;;;;;;1999.90;999.90;;;7.50;99.90;;;;;;5044176;28;20048;-67
2022/11/25 02:15:17;;;;;;;1999.90;999.90;;;7.50;99.90;;;;;;5045634;28;20032;-67
2022/11/25 02:17:44;;;;;;;1999.90;999.90;;;7.50;99.90;;;;;;5026995;28;20044;-67
2022/11/25 02:20:13;;;;;;;1999.90;999.90;;;7.50;99.90;;;;;;5046284;28;20052;-67
2022/11/25 02:22:57;;;;;;;1999.90;999.90;;;7.50;99.90;;;;;;5043494;28;20041;-67
2022/11/25 02:25:24;;;;;;;1999.90;999.90;;;7.40;99.90;;;;;;5057996;28;20047;-67
2022/11/25 02:27:55;;;;;;;1999.90;999.90;;;7.40;99.90;;;;;;5042995;28;20040;-67
2022/11/25 02:30:20;;;;;;;1999.90;999.90;;;7.40;99.90;;;;;;5027412;28;20044;-67
2022/11/25 02:32:47;;;;;;;1999.90;999.90;;;7.40;99.90;;;;;;5028884;28;20028;-67
2022/11/25 02:35:33;;;;;;;1999.90;999.90;;;7.40;99.90;;;;;;5042649;28;20357;-67
2022/11/25 02:38:09;;;;;;;1999.90;999.90;;;7.40;99.90;;;;;;5042973;28;20033;-67
2022/11/25 02:40:45;;;;;;;1999.90;999.90;;;7.40;99.90;;;;;;5059735;28;20037;-67
2022/11/25 02:43:11;;;;;;;1999.90;999.90;;;7.40;99.90;;;;;;5045521;28;20493;-67
2022/11/25 02:45:46;;;;;;;1999.90;999.90;;;7.40;99.90;;;;;;5025035;28;20056;-67
2022/11/25 02:48:12;;;;;;;1999.90;999.90;;;7.40;99.90;;;;;;5043641;28;20045;-67
2022/11/25 02:50:38;;;;;;;1999.90;999.90;;;7.40;99.90;;;;;;5023779;28;20045;-67
2022/11/25 02:53:03;;;;;;;1999.90;999.90;;;7.50;99.90;;;;;;5044818;28;20662;-67
2022/11/25 02:55:29;;;;;;;1999.90;999.90;;;7.50;99.90;;;;;;5043058;28;20052;-67
2022/11/25 02:57:55;;;;;;;1999.90;999.90;;;7.50;99.90;;;;;;5043337;28;20066;-67
2022/11/25 03:00:20;;;;;;;1999.90;999.90;;;7.50;99.90;;;;;;5045974;28;20033;-67
2022/11/25 03:02:47;;;;;;;1999.90;999.90;;;7.50;99.90;;;;;;5043478;28;20069;-67
2022/11/25 03:05:12;;;;;;;1999.90;999.90;;;7.50;99.90;;;;;;5043809;28;20040;-67
2022/11/25 03:07:38;;;;;;;1999.90;999.90;;;7.50;99.90;;;;;;5043149;28;20431;-67
2022/11/25 03:10:04;;;;;;;1999.90;999.90;;;7.60;99.90;;;;;;5045095;28;20037;-68
2022/11/25 03:12:29;;;;;;;1999.90;999.90;;;7.60;99.90;;;;;;5041439;28;20850;-68
2022/11/25 03:14:55;;;;;;;1999.90;999.90;;;7.60;99.90;;;;;;5042986;28;20068;-67
2022/11/25 03:17:21;;;;;;;1999.90;999.90;;;7.60;99.90;;;;;;5041684;28;20131;-67
2022/11/25 03:19:47;;;;;;;1999.90;999.90;;;7.70;99.90;;;;;;5026550;28;20136;-67
2022/11/25 03:22:12;;;;;;;1999.90;999.90;;;7.70;99.90;;;;;;5042979;28;20045;-67
2022/11/25 03:24:38;;;;;;;1999.90;999.90;;;7.70;99.90;;;;;;5043511;28;20043;-67
2022/11/25 03:27:04;;;;;;;1999.90;999.90;;;7.70;99.90;;;;;;5026343;28;20049;-67
2022/11/25 03:29:29;;;;;;;1999.90;999.90;;;7.80;99.90;;;;;;5047406;28;20086;-67
2022/11/25 03:31:55;;;;;;;1999.90;999.90;;;7.80;99.90;;;;;;5047389;28;20037;-68
2022/11/25 03:34:20;;;;;;;1999.90;999.90;;;7.80;99.90;;;;;;5031236;28;20052;-68
2022/11/25 03:36:46;;;;;;;1999.90;999.90;;;7.90;99.90;;;;;;5045551;28;20527;-68
2022/11/25 03:39:11;;;;;;;1999.90;999.90;;;7.90;99.90;;;;;;5048917;28;20040;-68
2022/11/25 03:41:37;;;;;;;1999.90;999.90;;;7.90;99.90;;;;;;5042652;28;20555;-68
2022/11/25 03:44:02;;;;;;;1999.90;999.90;;;7.90;99.90;;;;;;5030501;28;20505;-68
2022/11/25 03:46:28;;;;;;;1999.90;999.90;;;7.90;99.90;;;;;;5047110;28;20113;-68
2022/11/25 03:48:54;;;;;;;1999.90;999.90;;;7.90;99.90;;;;;;5047409;28;20044;-67
2022/11/25 03:51:19;;;;;;;1999.90;999.90;;;8.00;99.90;;;;;;5045007;28;20037;-68
2022/11/25 03:53:45;;;;;;;1999.90;999.90;;;7.90;99.90;;;;;;5045899;28;20048;-68
2022/11/25 03:56:10;;;;;;;1999.90;999.90;;;7.90;99.90;;;;;;5046782;28;20044;-67
2022/11/25 03:58:36;;;;;;;1999.90;999.90;;;8.00;99.90;;;;;;5046163;28;20484;-68
2022/11/25 04:01:02;;;;;;;1999.90;999.90;;;8.00;99.90;;;;;;5047481;28;20511;-68
2022/11/25 04:03:28;;;;;;;1999.90;999.90;;;7.90;99.90;;;;;;5047515;28;20166;-68
2022/11/25 04:05:54;;;;;;;1999.90;999.90;;;8.00;99.90;;;;;;5044233;28;20110;-68
2022/11/25 04:08:20;;;;;;;1999.90;999.90;;;7.90;99.90;;;;;;5043670;28;20082;-68
2022/11/25 04:10:45;;;;;;;1999.90;999.90;;;7.90;99.90;;;;;;5027102;28;20302;-68
2022/11/25 04:13:11;;;;;;;1999.90;999.90;;;7.90;99.90;;;;;;5046276;28;20037;-68
2022/11/25 04:15:36;;;;;;;1999.90;999.90;;;7.90;99.90;;;;;;5045891;28;20045;-68
2022/11/25 04:18:02;;;;;;;1999.90;999.90;;;7.90;99.90;;;;;;5046287;28;20466;-68
2022/11/25 04:20:28;;;;;;;1999.90;999.90;;;7.90;99.90;;;;;;5044492;28;20044;-68
2022/11/25 04:22:53;;;;;;;1999.90;999.90;;;7.90;99.90;;;;;;5047719;28;20037;-68
2022/11/25 04:25:19;;;;;;;1999.90;999.90;;;7.90;99.90;;;;;;5045753;28;20037;-68
2022/11/25 04:27:44;;;;;;;1999.90;999.90;;;7.90;99.90;;;;;;5045383;28;20049;-68
2022/11/25 04:30:10;;;;;;;1999.90;999.90;;;7.90;99.90;;;;;;5046570;28;20063;-68
2022/11/25 04:32:37;;;;;;;1999.90;999.90;;;7.90;99.90;;;;;;5039841;28;20079;-68
2022/11/25 04:35:03;;;;;;;1999.90;999.90;;;7.90;99.90;;;;;;5048138;28;20045;-68
2022/11/25 04:37:29;;;;;;;1999.90;999.90;;;7.90;99.90;;;;;;5046436;28;20049;-68
2022/11/25 04:39:54;;;;;;;1999.90;999.90;;;7.90;99.90;;;;;;5045750;28;20127;-68
2022/11/25 04:42:33;;;;;;;1999.90;999.90;;;7.90;99.90;;;;;;5046410;28;20087;-68
2022/11/25 04:44:59;;;;;;;1999.90;999.90;;;8.00;99.90;;;;;;5043808;28;20041;-68
2022/11/25 04:47:25;;;;;;;1999.90;999.90;;;8.00;99.90;;;;;;5043430;28;20115;-68
2022/11/25 04:49:50;;;;;;;1999.90;999.90;;;8.00;99.90;;;;;;5027687;28;20040;-68
2022/11/25 04:52:16;;;;;;;1999.90;999.90;;;8.00;99.90;;;;;;5046747;28;20412;-68
2022/11/25 04:54:42;;;;;;;1999.90;999.90;;;8.00;99.90;;;;;;5045988;28;20045;-68
2022/11/25 04:57:12;;;;;;;1999.90;999.90;;;8.00;99.90;;;;;;5046868;28;20045;-68
2022/11/25 04:59:40;;;;;;;1999.90;999.90;;;8.00;99.90;;;;;;5044226;28;20041;-68
2022/11/25 05:02:22;;;;;;;1999.90;999.90;;;8.00;99.90;;;;;;5047023;28;20041;-68
2022/11/25 05:04:50;;;;;;;1999.90;999.90;;;8.00;99.90;;;;;;5047081;28;20481;-68
2022/11/25 05:07:17;;;;;;;1999.90;999.90;;;8.00;99.90;;;;;;5047124;28;20567;-67
2022/11/25 05:09:43;;;;;;;1999.90;999.90;;;8.10;99.90;;;;;;5027726;28;20037;-68
2022/11/25 05:12:12;;;;;;;1999.90;999.90;;;8.10;99.90;;;;;;5046363;28;20033;-68
2022/11/25 05:14:38;;;;;;;1999.90;999.90;;;8.10;99.90;;;;;;5026215;28;20141;-67
2022/11/25 05:17:05;;;;;;;1999.90;999.90;;;8.10;99.90;;;;;;5042495;28;20524;-68
2022/11/25 05:19:32;;;;;;;1999.90;999.90;;;8.10;99.90;;;;;;5046183;28;20044;-68
2022/11/25 05:21:57;;;;;;;1999.90;999.90;;;8.00;99.90;;;;;;5044555;28;20037;-67
2022/11/25 05:24:24;;;;;;;1999.90;999.90;;;8.00;99.90;;;;;;5045026;28;20436;-68
2022/11/25 05:26:50;;;;;;;1999.90;999.90;;;8.00;99.90;;;;;;5027735;28;20041;-68
2022/11/25 05:29:15;;;;;;;1999.90;999.90;;;8.00;99.90;;;;;;5043914;28;20041;-68
2022/11/25 05:31:41;;;;;;;1999.90;999.90;;;8.00;99.90;;;;;;5047868;28;20033;-68
2022/11/25 05:34:07;;;;;;;1999.90;999.90;;;8.00;99.90;;;;;;5042795;28;20052;-68
2022/11/25 05:36:32;;;;;;;1999.90;999.90;;;8.00;99.90;;;;;;5028506;28;20052;-68
2022/11/25 05:38:58;;;;;;;1999.90;999.90;;;8.00;99.90;;;;;;5044388;28;20508;-68
2022/11/25 05:41:24;;;;;;;1999.90;999.90;;;8.00;99.90;;;;;;5042931;28;20639;-68
2022/11/25 05:43:50;;;;;;;1999.90;999.90;;;8.00;99.90;;;;;;5028564;28;20033;-68
2022/11/25 05:46:16;;;;;;;1999.90;999.90;;;8.10;99.90;;;;;;5044434;28;20400;-68
2022/11/25 05:48:41;;;;;;;1999.90;999.90;;;8.10;99.90;;;;;;5043872;28;20052;-67
2022/11/25 05:51:08;;;;;;;1999.90;999.90;;;8.10;99.90;;;;;;5029384;28;20071;-68
2022/11/25 05:53:34;;;;;;;1999.90;999.90;;;8.10;99.90;;;;;;5026005;28;20037;-68
2022/11/25 05:56:02;;;;;;;1999.90;999.90;;;8.10;99.90;;;;;;5044825;28;20201;-68
2022/11/25 05:58:29;;;;;;;1999.90;999.90;;;8.10;99.90;;;;;;5041083;28;20332;-68
2022/11/25 06:00:56;;;;;;;1999.90;999.90;;;8.20;99.90;;;;;;5044369;28;20056;-68
2022/11/25 06:03:28;;;;;;;1999.90;999.90;;;8.10;99.90;;;;;;5042863;28;20505;-68
2022/11/25 06:05:58;;;;;;;1999.90;999.90;;;8.10;99.90;;;;;;5043257;28;20040;-68
2022/11/25 06:08:24;;;;;;;1999.90;999.90;;;8.10;99.90;;;;;;5028787;28;20067;-68
2022/11/25 06:10:50;;;;;;;1999.90;999.90;;;8.10;99.90;;;;;;5027197;28;20116;-68
2022/11/25 06:13:16;;;;;;;1999.90;999.90;;;8.10;99.90;;;;;;5045486;28;20116;-67
2022/11/25 06:15:43;;;;;;;1999.90;999.90;;;8.10;99.90;;;;;;5024828;28;20059;-68
2022/11/25 06:18:09;;;;;;;1999.90;999.90;;;8.10;99.90;;;;;;5035379;28;20569;-68
2022/11/25 06:20:35;;;;;;;1999.90;999.90;;;8.20;99.90;;;;;;5042446;28;20563;-68
2022/11/25 06:23:01;;;;;;;1999.90;999.90;;;8.20;99.90;;;;;;5044052;28;20485;-68
2022/11/25 06:25:27;;;;;;;1999.90;999.90;;;8.20;99.90;;;;;;5027171;28;20044;-68
2022/11/25 06:27:53;;;;;;;1999.90;999.90;;;8.20;99.90;;;;;;5026113;28;20048;-68
2022/11/25 06:30:19;;;;;;;1999.90;999.90;;;8.20;99.90;;;;;;5043572;28;20133;-68
2022/11/25 06:32:44;;;;;;;1999.90;999.90;;;8.20;99.90;;;;;;5043790;28;20037;-67
2022/11/25 06:35:10;;;;;;;1999.90;999.90;;;8.20;99.90;;;;;;5042980;28;20107;-68
2022/11/25 06:37:36;;;;;;;1999.90;999.90;;;8.20;99.90;;;;;;5042485;28;20607;-68
2022/11/25 06:40:02;;;;;;;1999.90;999.90;;;8.20;99.90;;;;;;5043233;28;20446;-67
2022/11/25 06:42:28;;;;;;;1999.90;999.90;;;8.20;99.90;;;;;;5044973;28;20037;-68
2022/11/25 06:44:54;;;;;;;1999.90;999.90;;;8.20;99.90;;;;;;5042632;28;20106;-68
2022/11/25 06:47:19;;;;;;;1999.90;999.90;;;8.20;99.90;;;;;;5045396;28;20045;-68
2022/11/25 06:49:45;;;;;;;1999.90;999.90;;;8.20;99.90;;;;;;5041675;28;20051;-67
2022/11/25 06:52:10;;;;;;;1999.90;999.90;;;8.20;99.90;;;;;;5041228;28;20033;-68
2022/11/25 06:54:39;;;;;;;1999.90;999.90;;;8.20;99.90;;;;;;5041257;28;20040;-68
2022/11/25 06:57:10;;;;;;;1999.90;999.90;;;8.20;99.90;;;;;;5041362;28;20412;-68
2022/11/25 06:59:35;;;;;;;1999.90;999.90;;;8.20;99.90;;;;;;5041574;28;20043;-67
2022/11/25 07:02:01;;;;;;;1999.90;999.90;;;8.30;99.90;;;;;;5038023;28;20496;-68
2022/11/25 07:04:27;;;;;;;1999.90;999.90;;;8.30;99.90;;;;;;5044592;28;20123;-68
2022/11/25 07:06:53;;;;;;;1999.90;999.90;;;8.30;99.90;;;;;;5047087;28;20168;-68
2022/11/25 07:09:21;;;;;;;1999.90;999.90;;;8.30;99.90;;;;;;5043374;28;20064;-68
2022/11/25 07:11:47;;;;;;;1999.90;999.90;;;8.30;99.90;;;;;;5043955;28;20052;-68
2022/11/25 07:14:15;;;;;;;1999.90;999.90;;;8.40;99.90;;;;;;5012714;28;20056;-68
2022/11/25 07:16:43;;;;;;;1999.90;999.90;;;8.40;99.90;;;;;;5027361;28;20504;-68
2022/11/25 07:19:11;;;;;;;1999.90;999.90;;;8.40;99.90;;;;;;5045973;28;20048;-68
2022/11/25 07:21:36;;;;;;;1999.90;999.90;;;8.40;99.90;;;;;;5042900;28;20040;-68
2022/11/25 07:24:04;;;;;;;1999.90;999.90;;;8.40;99.90;;;;;;5045910;28;20565;-68
2022/11/25 07:26:33;;;;;;;1999.90;999.90;;;8.40;99.90;;;;;;5059021;28;20057;-68
2022/11/25 07:29:00;;;;;;;1999.90;999.90;;;8.30;99.90;;;;;;5044014;28;20045;-68
2022/11/25 07:31:29;;;;;;;1999.90;999.90;;;8.40;99.90;;;;;;5043428;28;20037;-68
2022/11/25 07:33:57;;;;;;;1999.90;999.90;;;8.30;99.90;;;;;;5030052;28;20048;-68
2022/11/25 07:36:23;;;;;;;1999.90;999.90;;;8.30;99.90;;;;;;5026986;28;20041;-68
2022/11/25 07:38:49;;;;;;;1999.90;999.90;;;8.30;99.90;;;;;;5045221;28;20039;-68
2022/11/25 07:41:23;;;;;;;1999.90;999.90;;;8.30;99.90;;;;;;5045042;28;20040;-68
2022/11/25 07:44:01;;;;;;;1999.90;999.90;;;8.20;99.90;;;;;;5045324;28;20132;-68
2022/11/25 07:46:33;;;;;;;1999.90;999.90;;;8.20;99.90;;;;;;5022801;28;20472;-68
2022/11/25 07:49:01;;;;;;;1999.90;999.90;;;8.10;99.90;;;;;;5046972;28;20075;-68
2022/11/25 07:51:33;;;;;;;1999.90;999.90;;;8.10;99.90;;;;;;5047812;28;20714;-68
2022/11/25 07:54:00;;;;;;;1999.90;999.90;;;8.10;99.90;;;;;;5046897;28;20043;-68
2022/11/25 07:56:27;;;;;;;1999.90;999.90;;;8.00;99.90;;;;;;5031648;28;20043;-68
2022/11/25 07:58:53;;;;;;;1999.90;999.90;;;8.00;99.90;;;;;;5063387;28;20059;-68
2022/11/25 08:01:19;;;;;;;1999.90;999.90;;;8.00;99.90;;;;;;5047541;28;20033;-68
2022/11/25 08:03:47;;;;;;;1999.90;999.90;;;8.10;99.90;;;;;;5045448;28;20045;-68
2022/11/25 08:06:15;;;;;;;1999.90;999.90;;;8.10;99.90;;;;;;5047354;28;20048;-68
2022/11/25 08:08:42;;;;;;;1999.90;999.90;;;8.20;99.90;;;;;;5030978;28;20064;-68
2022/11/25 08:11:19;;;;;;;1999.90;999.90;;;8.30;99.90;;;;;;5046210;28;20045;-68
2022/11/25 08:13:45;;;;;;;1999.90;999.90;;;8.40;99.90;;;;;;5028633;28;20078;-68
2022/11/25 08:16:13;;;;;;;1999.90;999.90;;;8.40;99.90;;;;;;5027780;28;20044;-68
2022/11/25 08:18:39;;;;;;;1999.90;999.90;;;8.40;99.90;;;;;;5058665;28;20041;-68
2022/11/25 08:21:08;;;;;;;1999.90;999.90;;;8.30;99.90;;;;;;5041837;28;20049;-68
2022/11/25 08:23:34;;;;;;;1999.90;999.90;;;8.30;99.90;;;;;;5044194;28;20114;-68
2022/11/25 08:26:09;;;;;;;1999.90;999.90;;;8.30;99.90;;;;;;5028611;28;20587;-68
2022/11/25 08:28:35;;;;;;;1999.90;999.90;;;8.40;99.90;;;;;;5045139;28;20486;-68
2022/11/25 08:31:02;;;;;;;1999.90;999.90;;;8.50;99.90;;;;;;5045013;28;20118;-68
2022/11/25 08:33:28;;;;;;;1999.90;999.90;;;8.60;99.90;;;;;;5044874;28;20052;-68
2022/11/25 08:35:53;;;;;;;1999.90;999.90;;;8.60;99.90;;;;;;5043120;28;20040;-68
2022/11/25 08:38:19;;;;;;;1999.90;999.90;;;8.70;99.90;;;;;;5040330;28;20036;-68
2022/11/25 08:40:45;;;;;;;1999.90;999.90;;;8.80;99.90;;;;;;5040537;28;20036;-68
2022/11/25 08:43:11;;;;;;;1999.90;999.90;;;8.80;99.90;;;;;;5044485;28;20122;-68
2022/11/25 08:45:38;;;;;;;1999.90;999.90;;;8.90;99.90;;;;;;5046688;28;20444;-68
2022/11/25 08:48:04;;;;;;;1999.90;999.90;;;8.90;99.90;;;;;;5044717;28;20053;-68
2022/11/25 08:50:30;;;;;;;1999.90;999.90;;;9.10;99.90;;;;;;5024845;28;20687;-68
2022/11/25 08:52:56;;;;;;;1999.90;999.90;;;9.20;99.90;;;;;;5039175;28;20038;-68
2022/11/25 08:55:24;;;;;;;1999.90;999.90;;;9.40;99.90;;;;;;5045083;28;20045;-68
2022/11/25 08:57:50;;;;;;;1999.90;999.90;;;9.60;99.90;;;;;;5044476;28;20087;-68
2022/11/25 09:00:16;;;;;;;1999.90;999.90;;;9.80;99.90;;;;;;5027849;28;20408;-68
2022/11/25 09:02:42;;;;;;;1999.90;999.90;;;9.90;99.90;;;;;;5042378;28;20467;-68
2022/11/25 09:05:10;;;;;;;1999.90;999.90;;;10.00;99.90;;;;;;5041825;28;20045;-67
2022/11/25 09:07:36;;;;;;;1999.90;999.90;;;10.10;99.90;;;;;;5042239;28;20079;-68
2022/11/25 09:10:02;;;;;;;1999.90;999.90;;;10.20;99.90;;;;;;5043409;28;20045;-68
2022/11/25 09:12:28;;;;;;;1999.90;999.90;;;10.20;99.90;;;;;;5027257;28;20037;-68
2022/11/25 09:14:53;;;;;;;1999.90;999.90;;;10.30;99.90;;;;;;5039291;28;20044;-68
2022/11/25 09:17:19;;;;;;;1999.90;999.90;;;10.20;99.90;;;;;;5038326;28;20036;-68
2022/11/25 09:19:44;;;;;;;1999.90;999.90;;;10.20;99.90;;;;;;5044359;28;20076;-68
2022/11/25 09:22:10;;;;;;;1999.90;999.90;;;10.20;99.90;;;;;;5046049;28;20037;-68
2022/11/25 09:24:35;;;;;;;1999.90;999.90;;;10.20;99.90;;;;;;5046372;28;20043;-68
2022/11/25 09:27:01;;;;;;;1999.90;999.90;;;10.20;99.90;;;;;;5042574;28;20037;-68
2022/11/25 09:29:28;;;;;;;1999.90;999.90;;;10.20;99.90;;;;;;5044684;28;20052;-68
2022/11/25 09:31:54;;;;;;;1999.90;999.90;;;10.20;99.90;;;;;;5047549;28;20048;-68
2022/11/25 09:34:20;;;;;;;1999.90;999.90;;;10.20;99.90;;;;;;5045965;28;20033;-67
2022/11/25 09:36:45;;;;;;;1999.90;999.90;;;10.30;99.90;;;;;;5047406;28;20493;-68
2022/11/25 09:39:11;;;;;;;1999.90;999.90;;;10.30;99.90;;;;;;5028127;28;20044;-68
2022/11/25 09:47:51;;;;;;;1999.90;999.90;;;10.30;99.90;;;;;;5043585;28;20057;-67
2022/11/25 09:50:47;;;;;;;1999.90;999.90;;;10.30;99.90;;;;;;5045850;28;20086;-68
2022/11/25 09:53:22;;;;;;;1999.90;999.90;;;10.40;99.90;;;;;;5044835;28;20040;-68
2022/11/25 09:55:52;;;;;;;1999.90;999.90;;;10.40;99.90;;;;;;5043106;28;22302;-67
2022/11/25 09:58:37;;;;;;;1999.90;999.90;;;10.40;99.90;;;;;;5046257;28;20041;-68
2022/11/25 10:01:05;;;;;;;1999.90;999.90;;;10.50;99.90;;;;;;5043986;28;20047;-67
2022/11/25 10:03:45;;;;;;;1999.90;999.90;;;10.60;99.90;;;;;;5044584;28;20033;-68
2022/11/25 10:06:26;;;;;;;1999.90;999.90;;;10.60;99.90;;;;;;5059668;28;20405;-68
2022/11/25 10:08:58;;;;;;;1999.90;999.90;;;10.60;99.90;;;;;;5038130;28;20114;-68
2022/11/25 10:11:24;;;;;;;1999.90;999.90;;;10.70;99.90;;;;;;5041289;28;20044;-68
2022/11/25 10:13:59;;;;;;;1999.90;999.90;;;10.70;99.90;;;;;;5043258;28;20044;-68
2022/11/25 10:16:38;;;;;;;1999.90;999.90;;;10.70;99.90;;;;;;5027353;28;20045;-67
2022/11/25 10:19:22;;;;;;;1999.90;999.90;;;10.80;99.90;;;;;;5044943;28;20052;-67
2022/11/25 10:21:48;;;;;;;1999.90;999.90;;;10.90;99.90;;;;;;5043188;28;20045;-68
2022/11/25 10:24:16;;;;;;;1999.90;999.90;;;10.90;99.90;;;;;;5044521;28;20520;-67
2022/11/25 10:26:47;;;;;;;1999.90;999.90;;;10.90;99.90;;;;;;5043988;28;20052;-68
2022/11/25 10:29:23;;;;;;;1999.90;999.90;;;10.90;99.90;;;;;;5046206;28;20469;-68
2022/11/25 10:31:53;;;;;;;1999.90;999.90;;;10.90;99.90;;;;;;5045769;28;20436;-67
2022/11/25 10:34:28;;;;;;;1999.90;999.90;;;10.80;99.90;;;;;;5043540;28;20041;-67
2022/11/25 10:36:57;;;;;;;1999.90;999.90;;;10.70;99.90;;;;;;5044197;28;20429;-67
2022/11/25 10:39:28;;;;;;;1999.90;999.90;;;10.60;99.90;;;;;;5045820;28;20041;-67
2022/11/25 10:42:02;;;;;;;1999.90;999.90;;;10.40;99.90;;;;;;5045280;28;20044;-67
2022/11/25 10:44:30;;;;;;;1999.90;999.90;;;10.40;99.90;;;;;;5044359;28;20041;-67
2022/11/25 10:47:30;;;;;;;1999.90;999.90;;;10.40;99.90;;;;;;5043907;28;20048;-67
2022/11/25 10:50:21;;;;;;;1999.90;999.90;;;10.40;99.90;;;;;;5043265;28;20047;-67
2022/11/25 10:52:57;;;;;;;1999.90;999.90;;;10.60;99.90;;;;;;5041536;28;20045;-67
2022/11/25 10:55:26;;;;;;;1999.90;999.90;;;10.80;99.90;;;;;;5044533;28;20037;-67
2022/11/25 10:57:53;;;;;;;1999.90;999.90;;;11.00;99.90;;;;;;5044734;28;20410;-67
2022/11/25 11:00:30;;;;;;;1999.90;999.90;;;11.10;99.90;;;;;;5027054;28;20045;-67
2022/11/25 11:02:57;;;;;;;1999.90;999.90;;;11.20;99.90;;;;;;5043997;28;20431;-68
2022/11/25 11:05:28;;;;;;;1999.90;999.90;;;11.20;99.90;;;;;;5027707;28;20040;-67
2022/11/25 11:08:19;;;;;;;1999.90;999.90;;;11.30;99.90;;;;;;5044800;28;20417;-67
2022/11/25 11:10:46;;;;;;;1999.90;999.90;;;11.50;99.90;;;;;;5042439;28;20394;-67
2022/11/25 11:13:23;;;;;;;1999.90;999.90;;;11.50;99.90;;;;;;5041165;28;20067;-67
2022/11/25 11:15:49;;;;;;;1999.90;999.90;;;11.60;99.90;;;;;;5057814;28;20384;-67
2022/11/25 11:18:39;;;;;;;1999.90;999.90;;;11.80;99.90;;;;;;5040753;28;20030;-67
2022/11/25 11:21:07;;;;;;;1999.90;999.90;;;11.90;99.90;;;;;;5026320;28;20523;-67
2022/11/25 11:23:48;;;;;;;1999.90;999.90;;;12.00;99.90;;;;;;5042772;28;20385;-67
2022/11/25 11:26:32;;;;;;;1999.90;999.90;;;12.20;99.90;;;;;;5041185;28;20056;-67
2022/11/25 11:29:15;;;;;;;1999.90;999.90;;;12.10;99.90;;;;;;5056291;28;20037;-68
2022/11/25 11:31:48;;;;;;;1999.90;999.90;;;12.00;99.90;;;;;;5041870;28;20631;-67
2022/11/25 11:34:28;;;;;;;1999.90;999.90;;;11.80;99.90;;;;;;5039313;28;20095;-68
2022/11/25 11:37:15;;;;;;;1999.90;999.90;;;11.60;99.90;;;;;;5039921;28;20084;-67
2022/11/25 11:40:24;;;;;;;1999.90;999.90;;;11.40;99.90;;;;;;5055706;28;20049;-67
2022/11/25 11:43:05;;;;;;;1999.90;999.90;;;11.20;99.90;;;;;;5016867;28;20052;-68
2022/11/25 11:45:55;;;;;;;1999.90;999.90;;;11.20;99.90;;;;;;5039737;28;20416;-68
2022/11/25 11:48:31;;;;;;;1999.90;999.90;;;11.20;99.90;;;;;;5022839;28;20057;-67
2022/11/25 11:51:09;;;;;;;1999.90;999.90;;;11.20;99.90;;;;;;5044680;28;20045;-67
2022/11/25 11:53:59;;;;;;;1999.90;999.90;;;11.10;99.90;;;;;;5042352;28;20116;-67
2022/11/25 11:57:14;;;;;;;1999.90;999.90;;;11.10;99.90;;;;;;5043255;28;20439;-68
2022/11/25 11:59:51;;;;;;;1999.90;999.90;;;11.00;99.90;;;;;;4984724;28;20088;-67
2022/11/25 12:02:35;;;;;;;1999.90;999.90;;;11.10;99.90;;;;;;5000530;28;20100;-67
2022/11/25 12:05:09;;;;;;;1999.90;999.90;;;11.20;99.90;;;;;;4985984;28;20085;-67
2022/11/25 12:07:50;;;;;;;1999.90;999.90;;;11.30;99.90;;;;;;5001384;28;20096;-67
2022/11/25 12:10:35;;;;;;;1999.90;999.90;;;11.30;99.90;;;;;;4985788;28;20046;-67
2022/11/25 12:13:25;;;;;;;1999.90;999.90;;;11.20;99.90;;;;;;5000056;28;20050;-67
2022/11/25 12:16:06;;;;;;;1999.90;999.90;;;11.20;99.90;;;;;;5004771;28;20103;-67
2022/11/25 12:18:53;;;;;;;1999.90;999.90;;;11.20;99.90;;;;;;4989276;28;20375;-67
2022/11/25 12:21:41;;;;;;;1999.90;999.90;;;11.30;99.90;;;;;;5002995;28;20088;-67
2022/11/25 12:24:13;;;;;;;1999.90;999.90;;;11.40;99.90;;;;;;5005158;28;20049;-67
2022/11/25 12:26:52;;;;;;;1999.90;999.90;;;11.50;99.90;;;;;;4999879;28;20599;-67